Time;durP1;ratioP1;P1;durP2;ratioP2;P2;SDS_P1;SDS_P2;PMS_P1;PMS_P2;Temp;Humidity;BMP_temperature;BMP_pressure;BME280_temperature;BME280_humidity;BME280_pressure;Samples;Min_cycle;Max_cycle;Signal;HPM_P1;HPM_P2
2021/12/16 00:10:13;;;;;;;6.90;3.40;;;;;;;7.10;71.80;102288.81;4849865;29;20666;-90
2021/12/16 00:34:58;;;;;;;6.43;3.75;;;;;;;6.30;71.46;102152.50;4834803;29;20041;-90
2021/12/16 00:40:49;;;;;;;7.40;3.65;;;;;;;6.54;71.83;102204.91;4860822;29;20281;-92
2021/12/16 00:43:41;;;;;;;6.00;3.95;;;;;;;7.06;71.92;102298.00;4830255;29;20017;-92
2021/12/16 00:54:11;;;;;;;7.35;3.78;;;;;;;6.59;71.53;102184.56;4866482;29;20439;-90
2021/12/16 00:56:50;;;;;;;5.68;3.45;;;;;;;7.05;72.06;102277.09;4827550;29;20030;-90
2021/12/16 00:59:19;;;;;;;6.45;3.78;;;;;;;7.01;71.94;102259.41;4841198;29;20044;-88
2021/12/16 01:01:59;;;;;;;6.05;3.55;;;;;;;7.07;71.73;102276.47;4848021;29;20093;-90
2021/12/16 01:05:04;;;;;;;8.52;4.20;;;;;;;7.06;72.12;102277.22;4844753;29;20508;-91
2021/12/16 01:48:01;;;;;;;7.05;3.83;;;;;;;6.72;72.26;102184.91;4859540;29;20121;-93
2021/12/16 01:50:33;;;;;;;6.15;3.60;;;;;;;6.79;71.88;102201.97;4833652;29;20139;-92
2021/12/16 01:53:24;;;;;;;6.53;3.78;;;;;;;6.93;72.09;102237.91;4832145;29;20124;-94
2021/12/16 01:59:02;;;;;;;6.03;4.00;;;;;;;6.61;72.13;102159.66;4848759;29;20035;-93
2021/12/16 02:01:35;;;;;;;7.30;4.25;;;;;;;6.75;71.87;102167.00;4849755;29;20034;-94
2021/12/16 02:04:39;;;;;;;7.00;4.05;;;;;;;7.02;71.92;102214.47;4830322;29;20131;-93
2021/12/16 02:07:25;;;;;;;8.27;4.10;;;;;;;6.80;72.30;102183.94;4845963;29;20041;-92
2021/12/16 02:09:57;;;;;;;7.93;4.20;;;;;;;6.81;72.02;102185.75;4868719;29;20042;-93
2021/12/16 02:12:58;;;;;;;6.50;4.15;;;;;;;7.06;71.73;102217.47;4831951;29;20034;-94
2021/12/16 02:27:48;;;;;;;6.95;3.90;;;;;;;7.01;72.05;102220.44;4863548;29;20518;-94
2021/12/16 02:35:58;;;;;;;8.07;4.45;;;;;;;6.79;72.11;102169.09;4857826;29;20049;-93
2021/12/16 02:39:00;;;;;;;7.38;4.50;;;;;;;7.03;72.02;102208.50;4832159;29;20519;-91
2021/12/16 02:41:49;;;;;;;9.05;4.40;;;;;;;6.98;71.80;102204.56;4830429;29;20040;-95
2021/12/16 02:50:00;;;;;;;8.57;4.63;;;;;;;6.95;72.00;102201.69;4838379;29;20174;-92
2021/12/16 02:53:06;;;;;;;7.55;4.00;;;;;;;6.99;71.97;102204.72;4841080;29;20033;-91
2021/12/16 02:55:40;;;;;;;6.32;3.90;;;;;;;6.77;72.25;102174.94;4838660;29;20069;-93
2021/12/16 02:58:20;;;;;;;9.05;4.40;;;;;;;6.88;72.21;102195.94;4840970;29;20518;-93
2021/12/16 03:00:58;;;;;;;7.10;4.32;;;;;;;6.71;72.33;102181.41;4831293;29;20040;-92
2021/12/16 03:04:06;;;;;;;8.50;4.25;;;;;;;6.97;71.94;102213.13;4843789;29;20036;-93
2021/12/16 03:06:34;;;;;;;6.25;3.90;;;;;;;6.67;71.45;102145.56;4829822;29;20069;-93
2021/12/16 03:09:05;;;;;;;8.30;4.28;;;;;;;6.88;71.98;102206.31;4824721;29;20053;-93
2021/12/16 03:12:20;;;;;;;7.22;4.30;;;;;;;6.84;71.92;102183.44;4838750;29;20065;-93
2021/12/16 03:14:48;;;;;;;6.97;3.95;;;;;;;6.76;72.01;102174.03;4857513;29;20062;-94
2021/12/16 03:17:27;;;;;;;7.40;4.72;;;;;;;6.88;72.18;102195.94;4827283;29;20046;-92
2021/12/16 03:23:51;;;;;;;7.93;3.85;;;;;;;6.65;71.69;102136.72;4837981;29;20053;-91
2021/12/16 03:35:28;;;;;;;8.15;4.78;;;;;;;6.85;72.12;102203.44;4817033;29;20046;-91
2021/12/16 03:38:08;;;;;;;7.82;4.50;;;;;;;6.95;72.14;102218.19;4835389;29;20086;-91
2021/12/16 03:40:51;;;;;;;8.18;4.32;;;;;;;6.79;72.21;102189.88;4829451;29;20049;-93
2021/12/16 03:43:20;;;;;;;7.15;4.53;;;;;;;6.84;72.10;102203.31;4816715;29;20051;-94
2021/12/16 03:49:17;;;;;;;7.05;4.35;;;;;;;6.92;72.21;102208.44;4844282;29;20044;-93
2021/12/16 03:55:11;;;;;;;7.20;4.50;;;;;;;6.68;72.26;102177.59;4842566;29;20141;-92
2021/12/16 03:58:06;;;;;;;9.00;4.35;;;;;;;6.91;72.34;102211.78;4826320;29;20030;-92
2021/12/16 04:00:36;;;;;;;9.07;4.63;;;;;;;6.91;72.40;102216.06;4826539;29;20033;-93
2021/12/16 04:03:06;;;;;;;10.85;4.80;;;;;;;6.78;72.30;102195.88;4827090;29;20105;-92
2021/12/16 04:05:45;;;;;;;8.23;5.00;;;;;;;6.64;72.51;102167.72;4812202;29;20450;-94
2021/12/16 04:09:04;;;;;;;8.68;4.78;;;;;;;6.87;72.41;102204.47;4829865;29;20511;-92
2021/12/16 04:12:07;;;;;;;7.70;5.03;;;;;;;6.97;72.07;102202.75;4829188;29;20038;-94
2021/12/16 04:17:55;;;;;;;6.78;4.35;;;;;;;6.65;72.19;102157.47;4857452;29;20057;-93
2021/12/16 04:20:34;;;;;;;8.43;5.10;;;;;;;6.84;72.35;102187.72;4830445;29;20124;-92
2021/12/16 04:23:24;;;;;;;9.90;5.50;;;;;;;6.86;72.38;102193.97;4853809;29;20037;-92
2021/12/16 04:25:54;;;;;;;8.00;4.80;;;;;;;6.96;71.79;102182.72;4830932;29;20030;-94
2021/12/16 04:28:37;;;;;;;9.07;5.03;;;;;;;6.87;72.22;102191.50;4850147;29;20120;-95
2021/12/16 04:31:02;;;;;;;10.35;5.05;;;;;;;6.65;72.56;102143.59;4833762;29;20026;-93
2021/12/16 04:37:31;;;;;;;9.10;4.95;;;;;;;6.89;72.19;102179.56;4866197;29;20093;-91
2021/12/16 04:40:27;;;;;;;8.90;5.07;;;;;;;6.80;72.52;102181.34;4834590;29;20476;-93
2021/12/16 04:46:37;;;;;;;7.65;4.57;;;;;;;6.85;72.25;102173.97;4858917;29;20080;-93
2021/12/16 04:49:15;;;;;;;8.85;5.20;;;;;;;6.43;72.56;102115.66;4844010;29;20040;-94
2021/12/16 04:51:50;;;;;;;8.88;5.28;;;;;;;6.63;72.26;102150.31;4840407;29;20034;-93
2021/12/16 04:54:24;;;;;;;8.63;4.97;;;;;;;6.79;72.25;102166.50;4829103;29;20703;-95
2021/12/16 04:56:53;;;;;;;9.02;4.72;;;;;;;6.63;72.30;102171.09;4847547;29;20029;-93
2021/12/16 04:59:23;;;;;;;8.88;5.22;;;;;;;6.72;72.03;102165.03;4829273;29;20056;-92
2021/12/16 05:02:03;;;;;;;8.90;4.95;;;;;;;6.39;72.11;102105.78;4830092;29;20084;-92
2021/12/16 05:04:32;;;;;;;10.63;5.50;;;;;;;6.72;72.06;102144.28;4844069;29;20106;-92
2021/12/16 05:07:15;;;;;;;8.57;5.00;;;;;;;6.68;72.14;102154.25;4844248;29;20033;-93
2021/12/16 05:10:18;;;;;;;6.95;4.80;;;;;;;6.83;72.55;102189.41;4855324;29;20495;-92
2021/12/16 05:12:58;;;;;;;8.00;5.00;;;;;;;6.60;72.47;102155.22;4842475;29;20068;-93
2021/12/16 05:16:06;;;;;;;8.65;4.78;;;;;;;6.84;72.29;102193.84;4829422;29;20037;-91
2021/12/16 05:18:35;;;;;;;7.65;4.85;;;;;;;6.77;72.69;102198.31;4858278;29;20033;-89
2021/12/16 05:21:12;;;;;;;6.88;4.25;;;;;;;6.70;72.40;102187.34;4855786;29;20040;-91
2021/12/16 05:26:34;;;;;;;8.75;5.15;;;;;;;6.77;72.28;102199.22;4849071;29;20049;-93
2021/12/16 05:29:08;;;;;;;8.18;4.57;;;;;;;6.87;72.04;102209.69;4827564;29;20070;-92
2021/12/16 05:32:01;;;;;;;7.13;4.43;;;;;;;6.91;72.11;102196.22;4828331;29;20037;-94
2021/12/16 05:34:36;;;;;;;9.43;4.20;;;;;;;6.63;72.19;102169.41;4841394;29;20464;-93
2021/12/16 05:37:08;;;;;;;7.70;4.87;;;;;;;6.64;72.28;102180.69;4815708;29;20392;-91
2021/12/16 05:39:45;;;;;;;8.27;4.80;;;;;;;6.61;72.12;102163.16;4829469;29;20112;-92
2021/12/16 05:42:17;;;;;;;7.95;4.57;;;;;;;6.65;72.54;102191.22;4832146;29;20025;-91
2021/12/16 05:44:58;;;;;;;7.47;4.43;;;;;;;6.55;72.63;102174.66;4832966;29;20109;-92
2021/12/16 05:47:43;;;;;;;7.43;4.32;;;;;;;6.80;72.20;102209.91;4845797;29;20030;-93
2021/12/16 05:50:29;;;;;;;6.50;4.38;;;;;;;6.77;72.16;102217.38;4828884;29;20069;-93
2021/12/16 05:53:15;;;;;;;7.40;4.45;;;;;;;6.79;72.49;102217.53;4824052;29;20109;-93
2021/12/16 05:55:53;;;;;;;6.75;3.95;;;;;;;6.66;71.89;102164.47;4825152;29;20062;-91
2021/12/16 05:58:36;;;;;;;6.22;4.05;;;;;;;6.75;72.06;102195.56;4854674;29;20045;-93
2021/12/16 06:01:41;;;;;;;6.90;4.03;;;;;;;6.25;72.22;102122.66;4845704;29;20061;-93
2021/12/16 06:04:16;;;;;;;8.85;4.55;;;;;;;6.54;72.63;102181.53;4779678;29;20062;-94
2021/12/16 06:06:51;;;;;;;9.25;4.63;;;;;;;6.15;72.13;102104.41;4787677;29;20074;-90
2021/12/16 06:12:42;;;;;;;7.60;4.30;;;;;;;6.80;72.05;102227.16;4838941;29;20053;-93
2021/12/16 06:15:36;;;;;;;5.82;3.80;;;;;;;6.19;72.32;102134.16;4860226;29;20052;-91
2021/12/16 06:27:23;;;;;;;6.90;4.22;;;;;;;6.66;72.07;102220.69;4849537;29;20041;-91
2021/12/16 06:30:20;;;;;;;8.05;4.13;;;;;;;6.96;71.65;102255.44;4847282;29;20051;-89
2021/12/16 06:32:46;;;;;;;6.50;3.97;;;;;;;6.47;72.07;102194.69;4834467;29;20038;-89
2021/12/16 06:35:24;;;;;;;6.18;3.90;;;;;;;6.71;72.33;102233.34;4846330;29;20034;-90
2021/12/16 06:37:50;;;;;;;7.32;4.13;;;;;;;6.41;72.00;102192.44;4845123;29;20041;-89
2021/12/16 06:40:17;;;;;;;5.85;4.05;;;;;;;6.83;72.16;102259.50;4832140;29;20506;-87
2021/12/16 06:42:44;;;;;;;7.63;4.30;;;;;;;6.55;71.73;102203.22;4836443;29;20030;-89
2021/12/16 06:45:29;;;;;;;5.18;3.58;;;;;;;6.60;72.01;102209.72;4829573;29;20029;-89
2021/12/16 06:48:23;;;;;;;7.55;3.83;;;;;;;6.79;72.31;102259.06;4830632;29;20116;-89
2021/12/16 06:51:13;;;;;;;7.25;3.90;;;;;;;6.88;71.82;102263.47;4845506;29;20037;-92
2021/12/16 06:54:02;;;;;;;5.43;3.78;;;;;;;6.91;72.03;102268.00;4844881;29;20068;-90
2021/12/16 06:57:36;;;;;;;5.40;3.58;;;;;;;6.91;71.82;102262.81;4829934;29;20037;-92
2021/12/16 07:00:17;;;;;;;4.85;3.45;;;;;;;6.82;72.03;102268.06;4842260;29;20048;-90
2021/12/16 07:03:05;;;;;;;7.47;3.63;;;;;;;6.76;72.45;102267.50;4831664;29;20025;-89
2021/12/16 07:05:37;;;;;;;6.05;3.72;;;;;;;6.46;72.18;102206.78;4845707;29;20555;-88
2021/12/16 07:08:18;;;;;;;5.65;3.88;;;;;;;6.76;72.39;102269.19;4839119;29;20029;-88
2021/12/16 07:10:55;;;;;;;6.90;3.53;;;;;;;6.28;71.16;102141.09;4826511;29;20177;-91
2021/12/16 07:13:34;;;;;;;5.40;3.60;;;;;;;6.61;71.90;102228.06;4854141;29;20040;-89
2021/12/16 07:19:16;;;;;;;4.88;3.47;;;;;;;6.71;71.94;102240.22;4858587;29;20571;-93
2021/12/16 07:21:44;;;;;;;6.35;4.00;;;;;;;6.80;71.98;102263.53;4845166;29;20073;-91
2021/12/16 07:24:28;;;;;;;8.18;3.40;;;;;;;6.67;72.06;102244.19;4829199;29;20515;-90
2021/12/16 07:27:13;;;;;;;5.97;3.92;;;;;;;6.56;72.51;102241.34;4829535;29;20037;-91
2021/12/16 07:29:42;;;;;;;5.22;3.65;;;;;;;6.58;72.62;102245.00;4830917;29;20021;-90
2021/12/16 07:32:42;;;;;;;5.13;3.30;;;;;;;6.80;72.24;102271.31;4843270;29;20037;-91
2021/12/16 07:35:14;;;;;;;5.05;3.35;;;;;;;6.34;72.39;102202.13;4843903;29;20033;-89
2021/12/16 07:37:48;;;;;;;5.75;3.60;;;;;;;6.73;72.35;102264.59;4844361;29;20029;-90
2021/12/16 07:40:20;;;;;;;5.47;3.40;;;;;;;6.67;72.26;102261.47;4828368;29;20026;-90
2021/12/16 07:45:48;;;;;;;5.65;3.50;;;;;;;6.56;72.62;102238.75;4842559;29;20427;-92
2021/12/16 07:48:26;;;;;;;6.18;3.72;;;;;;;6.71;72.32;102258.38;4831248;29;20026;-91
2021/12/16 07:51:32;;;;;;;5.53;3.55;;;;;;;6.70;72.63;102273.03;4860020;29;20057;-92
2021/12/16 07:54:12;;;;;;;5.57;3.20;;;;;;;6.75;72.62;102285.53;4836518;29;20508;-93
2021/12/16 07:56:50;;;;;;;5.93;3.67;;;;;;;6.59;72.28;102252.94;4829630;29;20164;-90
2021/12/16 07:59:25;;;;;;;5.13;3.30;;;;;;;6.76;72.24;102280.47;4828734;29;20105;-90
2021/12/16 08:02:28;;;;;;;5.38;3.42;;;;;;;6.74;72.46;102271.63;4832418;29;20120;-91
2021/12/16 08:05:22;;;;;;;5.28;3.35;;;;;;;6.72;72.64;102281.88;4843106;29;20077;-91
2021/12/16 08:08:24;;;;;;;4.68;3.33;;;;;;;6.74;72.54;102284.63;4853673;29;20051;-92
2021/12/16 08:11:02;;;;;;;4.85;3.10;;;;;;;6.58;72.40;102261.47;4843462;29;20049;-93
2021/12/16 08:13:30;;;;;;;4.45;3.00;;;;;;;6.64;72.39;102258.56;4845047;29;20033;-90
2021/12/16 08:16:03;;;;;;;6.18;3.72;;;;;;;6.75;72.29;102278.63;4853181;29;20112;-91
2021/12/16 08:18:37;;;;;;;4.72;3.53;;;;;;;6.49;72.21;102232.09;4827511;29;20433;-90
2021/12/16 08:21:08;;;;;;;3.95;3.08;;;;;;;6.61;72.74;102266.97;4853328;29;20167;-91
2021/12/16 08:23:44;;;;;;;5.13;3.25;;;;;;;6.49;72.92;102250.25;4861896;29;20026;-93
2021/12/16 08:26:20;;;;;;;5.55;3.05;;;;;;;6.49;72.67;102250.25;4829965;29;20092;-92
2021/12/16 08:28:50;;;;;;;6.28;3.30;;;;;;;6.55;72.33;102239.53;4842413;29;20033;-92
2021/12/16 08:31:20;;;;;;;5.35;3.10;;;;;;;6.49;72.16;102235.59;4834343;29;20185;-93
2021/12/16 08:37:17;;;;;;;4.68;3.20;;;;;;;6.77;72.33;102273.59;4854445;29;20032;-92
2021/12/16 08:39:53;;;;;;;6.38;3.55;;;;;;;6.52;72.54;102225.50;4868693;29;20445;-91
2021/12/16 08:42:19;;;;;;;6.20;3.10;;;;;;;6.52;72.36;102232.38;4831149;29;20404;-90
2021/12/16 08:44:54;;;;;;;5.65;3.10;;;;;;;6.28;72.19;102189.47;4843348;29;20029;-93
2021/12/16 08:47:31;;;;;;;5.07;3.08;;;;;;;6.72;72.45;102258.50;4828681;29;20037;-91
2021/12/16 08:49:58;;;;;;;3.78;3.05;;;;;;;6.45;72.63;102225.69;4843755;29;20042;-91
2021/12/16 08:52:27;;;;;;;4.22;3.00;;;;;;;6.70;72.49;102264.34;4844064;29;20034;-91
2021/12/16 08:54:54;;;;;;;6.63;3.17;;;;;;;6.40;72.59;102205.28;4835251;29;20033;-90
2021/12/16 08:57:27;;;;;;;4.25;2.78;;;;;;;6.42;72.52;102212.44;4824475;29;20037;-88
2021/12/16 08:59:55;;;;;;;5.72;3.50;;;;;;;6.65;72.81;102253.53;4821605;29;20037;-91
2021/12/16 09:02:41;;;;;;;5.72;3.42;;;;;;;6.69;72.57;102262.53;4826007;29;20025;-91
2021/12/16 09:05:10;;;;;;;5.97;3.22;;;;;;;6.41;72.43;102220.06;4822624;29;20050;-92
2021/12/16 09:07:40;;;;;;;5.60;2.72;;;;;;;6.57;72.32;102230.22;4828905;29;20033;-89
2021/12/16 09:10:12;;;;;;;4.82;3.20;;;;;;;6.67;72.85;102254.59;4852351;29;20461;-91
2021/12/16 09:13:17;;;;;;;5.97;3.75;;;;;;;6.64;73.06;102251.69;4836565;29;20054;-92
2021/12/16 09:16:13;;;;;;;4.75;3.00;;;;;;;6.68;72.63;102250.28;4814354;29;20116;-93
2021/12/16 09:18:44;;;;;;;4.30;3.38;;;;;;;6.49;72.59;102216.50;4837028;29;20445;-93
2021/12/16 09:21:31;;;;;;;4.88;3.15;;;;;;;6.75;72.33;102251.78;4808238;29;20038;-91
2021/12/16 09:23:58;;;;;;;4.88;3.28;;;;;;;6.51;72.64;102208.09;4826018;29;20061;-92
2021/12/16 09:26:25;;;;;;;4.28;3.08;;;;;;;6.27;72.27;102167.81;4822735;29;20412;-94
2021/12/16 09:28:53;;;;;;;4.88;2.97;;;;;;;6.57;72.40;102222.44;4829655;29;20066;-92
2021/12/16 09:31:36;;;;;;;5.10;2.90;;;;;;;6.49;71.94;102172.41;4827914;29;20030;-91
2021/12/16 09:34:18;;;;;;;5.40;3.15;;;;;;;6.52;72.37;102206.44;4846483;29;20041;-92
2021/12/16 09:36:49;;;;;;;5.85;3.40;;;;;;;7.02;70.63;102204.06;4843897;29;20032;-92
2021/12/16 09:39:21;;;;;;;4.88;3.35;;;;;;;7.09;70.58;102225.56;4829473;29;20034;-90
2021/12/16 09:41:56;;;;;;;4.25;2.92;;;;;;;6.83;70.81;102181.59;4845336;29;20040;-91
2021/12/16 09:44:26;;;;;;;5.88;3.08;;;;;;;6.67;70.88;102149.84;4829302;29;20121;-92
2021/12/16 09:47:11;;;;;;;5.47;3.50;;;;;;;7.29;69.98;102211.75;4834045;29;20033;-93
2021/12/16 09:49:41;;;;;;;5.35;2.97;;;;;;;7.11;69.87;102184.13;4831223;29;20048;-91
2021/12/16 09:52:22;;;;;;;5.00;3.15;;;;;;;6.67;72.00;102188.78;4831401;29;20471;-89
2021/12/16 09:54:54;;;;;;;4.43;3.17;;;;;;;6.52;72.41;102168.41;4831595;29;20124;-90
2021/12/16 09:57:21;;;;;;;5.10;3.13;;;;;;;6.50;72.10;102163.88;4847772;29;20030;-91
2021/12/16 09:59:49;;;;;;;5.25;3.50;;;;;;;6.85;71.74;102187.84;4831674;29;20033;-92
2021/12/16 10:02:19;;;;;;;5.90;3.50;;;;;;;6.06;72.07;102075.94;4831683;29;20169;-93
2021/12/16 10:08:29;;;;;;;4.45;3.33;;;;;;;6.98;71.64;102188.97;4856328;29;20105;-89
2021/12/16 10:11:05;;;;;;;5.18;3.30;;;;;;;6.89;71.85;102182.16;4829609;29;20037;-90
2021/12/16 10:13:45;;;;;;;5.07;3.55;;;;;;;6.98;71.26;102171.69;4825744;29;20029;-89
2021/12/16 10:18:42;;;;;;;5.70;3.70;;;;;;;6.72;71.18;102140.78;4858150;29;20077;-90
2021/12/16 10:21:12;;;;;;;4.28;3.10;;;;;;;6.64;72.10;102163.41;4846046;29;20030;-90
2021/12/16 10:23:49;;;;;;;5.78;3.40;;;;;;;6.52;72.40;102144.16;4820172;29;20539;-90
2021/12/16 10:26:23;;;;;;;;;;;;;;;6.72;72.21;102179.72;4830985;29;20033;-91
2021/12/16 10:28:53;;;;;;;5.70;3.15;;;;;;;6.58;72.75;102164.53;4846192;29;20342;-90
2021/12/16 10:31:28;;;;;;;6.90;3.30;;;;;;;6.78;72.22;102174.19;4832653;29;20033;-89
2021/12/16 10:34:02;;;;;;;4.30;3.08;;;;;;;6.71;71.81;102162.34;4853157;29;20030;-90
2021/12/16 10:36:45;;;;;;;4.60;3.10;;;;;;;6.85;72.13;102186.94;4829414;29;20121;-89
2021/12/16 10:39:22;;;;;;;5.22;3.28;;;;;;;7.05;71.18;102187.09;4844601;29;20033;-87
2021/12/16 10:41:56;;;;;;;4.50;3.05;;;;;;;6.74;71.33;102141.84;4829590;29;20041;-87
2021/12/16 10:44:27;;;;;;;4.13;3.05;;;;;;;6.74;72.14;102175.59;4832900;29;20037;-89
2021/12/16 10:47:00;;;;;;;5.72;2.95;;;;;;;6.66;72.60;102184.34;4841709;29;20415;-88
2021/12/16 10:49:31;;;;;;;4.85;3.03;;;;;;;6.79;71.31;102121.47;4832604;29;20097;-88
2021/12/16 10:52:03;;;;;;;5.13;3.58;;;;;;;6.96;70.07;102133.38;4857692;29;20037;-88
2021/12/16 10:54:41;;;;;;;5.75;3.30;;;;;;;6.56;71.48;102121.97;4847194;29;20097;-88
2021/12/16 10:57:19;;;;;;;4.32;2.85;;;;;;;6.54;72.45;102158.19;4831270;29;20056;-88
2021/12/16 11:00:35;;;;;;;4.85;2.97;;;;;;;6.61;72.36;102162.25;4853314;29;20029;-91
2021/12/16 11:03:03;;;;;;;3.35;2.63;;;;;;;6.07;72.43;102069.06;4844192;29;20689;-89
2021/12/16 11:05:34;;;;;;;3.72;2.90;;;;;;;6.69;72.40;102182.94;4860706;29;20035;-88
2021/12/16 11:08:01;;;;;;;5.00;3.10;;;;;;;6.78;72.07;102176.78;4835571;29;20128;-90
2021/12/16 11:10:36;;;;;;;7.05;3.40;;;;;;;6.39;72.38;102136.91;4829038;29;20144;-89
2021/12/16 11:13:11;;;;;;;4.05;2.90;;;;;;;6.36;72.38;102120.16;4843417;29;20034;-90
2021/12/16 11:15:43;;;;;;;6.43;3.17;;;;;;;6.74;72.26;102172.97;4827347;29;20040;-88
2021/12/16 11:18:22;;;;;;;5.43;3.20;;;;;;;6.75;72.33;102173.88;4837059;29;20046;-88
2021/12/16 11:20:53;;;;;;;4.40;3.03;;;;;;;6.66;72.63;102174.88;4867005;29;20044;-86
2021/12/16 11:23:22;;;;;;;4.18;3.03;;;;;;;6.10;72.33;102082.34;4841928;29;20064;-88
2021/12/16 11:25:55;;;;;;;5.00;3.00;;;;;;;6.65;72.53;102172.16;4828382;29;20068;-88
2021/12/16 11:28:31;;;;;;;3.92;3.25;;;;;;;6.66;72.65;102171.38;4828174;29;20045;-89
2021/12/16 11:31:01;;;;;;;5.65;3.53;;;;;;;6.75;72.40;102156.63;4845875;29;20460;-88
2021/12/16 11:33:32;;;;;;;8.05;3.40;;;;;;;6.76;71.90;102161.06;4824307;29;20049;-90
2021/12/16 11:36:13;;;;;;;4.63;3.25;;;;;;;6.57;72.13;102129.91;4827510;29;20044;-88
2021/12/16 11:38:48;;;;;;;4.70;3.65;;;;;;;6.60;72.60;102169.09;4854369;29;20047;-91
2021/12/16 11:41:33;;;;;;;5.15;3.20;;;;;;;6.61;72.61;102150.19;4845436;29;20033;-91
2021/12/16 11:44:10;;;;;;;5.20;2.90;;;;;;;6.62;72.67;102161.47;4844548;29;20184;-89
2021/12/16 11:46:56;;;;;;;4.30;3.00;;;;;;;6.63;72.68;102142.53;4834216;29;20508;-91
2021/12/16 11:50:01;;;;;;;4.93;2.90;;;;;;;6.67;72.45;102137.75;4827052;29;20030;-92
2021/12/16 11:52:35;;;;;;;7.18;3.58;;;;;;;6.90;71.22;102105.16;4859447;29;20084;-90
2021/12/16 11:55:46;;;;;;;7.03;3.42;;;;;;;6.76;72.01;102134.19;4829313;29;20484;-90
2021/12/16 11:58:31;;;;;;;7.47;3.33;;;;;;;6.61;72.49;102133.69;4846756;29;20489;-89
2021/12/16 12:01:30;;;;;;;4.80;3.17;;;;;;;6.59;72.71;102133.56;4829189;29;20034;-92
2021/12/16 12:04:06;;;;;;;7.68;3.35;;;;;;;6.67;72.35;102131.66;4837867;29;20096;-91
2021/12/16 12:09:54;;;;;;;6.68;2.95;;;;;;;6.52;72.56;102110.41;4855379;29;20113;-92
2021/12/16 12:12:54;;;;;;;4.68;3.47;;;;;;;6.59;72.77;102128.38;4829298;29;20037;-91
2021/12/16 12:16:13;;;;;;;6.35;3.25;;;;;;;6.65;72.72;102117.63;4829213;29;20051;-93
2021/12/16 12:18:59;;;;;;;6.32;3.40;;;;;;;6.75;71.80;102125.47;4856914;29;20166;-93
2021/12/16 12:21:43;;;;;;;6.40;3.23;;;;;;;6.69;72.25;102111.97;4845779;29;20514;-94
2021/12/16 12:24:37;;;;;;;5.97;3.30;;;;;;;6.60;72.54;102108.50;4850385;29;20278;-95
2021/12/16 12:27:48;;;;;;;5.18;3.10;;;;;;;6.73;71.98;102127.94;4839563;29;20455;-92
2021/12/16 12:31:06;;;;;;;4.13;3.10;;;;;;;6.61;72.73;102124.22;4850732;29;20128;-94
2021/12/16 12:33:32;;;;;;;4.57;3.23;;;;;;;6.38;72.26;102064.13;4850273;29;20500;-92
2021/12/16 12:36:12;;;;;;;4.35;2.83;;;;;;;6.46;72.28;102095.19;4853896;29;20041;-92
2021/12/16 12:39:16;;;;;;;7.13;3.20;;;;;;;6.63;72.59;102122.69;4824905;29;20033;-93
2021/12/16 12:41:45;;;;;;;4.47;3.35;;;;;;;6.43;72.58;102094.88;4828395;29;20033;-90
2021/12/16 12:44:13;;;;;;;4.55;3.10;;;;;;;6.87;71.03;102120.50;4844617;29;20539;-94
2021/12/16 12:46:40;;;;;;;4.88;3.22;;;;;;;6.62;72.03;102110.47;4852818;29;20039;-83
2021/12/16 12:49:11;;;;;;;5.93;2.95;;;;;;;6.38;71.48;102054.66;4863704;29;20033;-92
2021/12/16 12:51:53;;;;;;;7.53;3.15;;;;;;;6.41;72.50;102078.25;4828969;29;20060;-91
2021/12/16 12:54:33;;;;;;;4.75;2.83;;;;;;;6.44;72.45;102088.03;4842592;29;20037;-90
2021/12/16 12:57:23;;;;;;;4.28;2.80;;;;;;;6.34;72.87;102078.47;4839707;29;20501;-90
2021/12/16 12:59:48;;;;;;;5.05;2.92;;;;;;;6.60;72.65;102118.88;4827749;29;20056;-91
2021/12/16 13:02:41;;;;;;;5.65;2.80;;;;;;;6.60;72.48;102106.81;4825920;29;20116;-91
2021/12/16 13:05:50;;;;;;;4.63;2.97;;;;;;;6.53;72.48;102100.16;4836202;29;20042;-90
2021/12/16 13:08:26;;;;;;;4.60;2.60;;;;;;;6.56;72.65;102111.59;4846516;29;20140;-90
2021/12/16 13:11:03;;;;;;;4.32;2.47;;;;;;;6.70;71.74;102098.19;4828207;29;20108;-91
2021/12/16 13:13:37;;;;;;;3.75;2.90;;;;;;;6.67;71.81;102078.06;4847164;29;20060;-89
2021/12/16 13:28:44;;;;;;;4.38;2.92;;;;;;;6.56;72.44;102109.94;4845157;29;20101;-88
2021/12/16 13:31:33;;;;;;;5.60;2.75;;;;;;;6.89;71.51;102109.47;4842601;29;20174;-90
2021/12/16 13:34:04;;;;;;;4.53;3.25;;;;;;;6.82;70.39;102081.13;4861874;29;20040;-91
2021/12/16 13:36:49;;;;;;;4.60;2.60;;;;;;;6.50;71.88;102092.09;4829778;29;20038;-90
2021/12/16 13:39:26;;;;;;;6.93;3.22;;;;;;;6.46;72.18;102077.03;4862186;29;20025;-90
2021/12/16 13:42:43;;;;;;;3.75;2.72;;;;;;;6.66;72.05;102129.81;4830253;29;20045;-91
2021/12/16 14:06:53;;;;;;;4.95;2.58;;;;;;;6.53;72.64;102148.56;4868952;29;20037;-91
2021/12/16 14:09:29;;;;;;;4.35;2.70;;;;;;;6.57;72.12;102141.97;4853912;29;20045;-90
2021/12/16 14:18:07;;;;;;;5.03;2.45;;;;;;;6.22;72.48;102085.13;4838117;29;20571;-94
2021/12/16 14:23:54;;;;;;;3.50;2.53;;;;;;;6.49;72.83;102160.31;4875735;29;20041;-90
2021/12/16 14:26:39;;;;;;;3.08;2.17;;;;;;;6.24;72.70;102104.34;4834577;29;20215;-90
2021/12/16 14:39:29;;;;;;;5.25;2.40;;;;;;;6.55;71.97;102147.00;4846662;29;20155;-94
2021/12/16 14:54:07;;;;;;;4.72;2.58;;;;;;;6.37;72.44;102129.75;4843960;29;20106;-90
2021/12/16 15:03:37;;;;;;;5.05;2.17;;;;;;;6.36;72.57;102146.09;4861469;29;20041;-94
2021/12/16 15:06:39;;;;;;;2.95;2.15;;;;;;;6.46;72.67;102157.47;4828444;29;20065;-92
2021/12/16 15:09:15;;;;;;;5.90;2.53;;;;;;;6.29;72.67;102121.25;4839315;29;20044;-92
2021/12/16 15:12:24;;;;;;;3.92;2.17;;;;;;;6.56;72.20;102164.44;4827947;29;20033;-93
2021/12/16 15:37:13;;;;;;;3.97;2.70;;;;;;;6.42;72.10;102126.81;4838579;29;20089;-88
2021/12/16 15:43:07;;;;;;;4.30;2.97;;;;;;;6.48;72.42;102163.72;4992415;24;20130;-94
2021/12/16 15:45:51;;;;;;;4.63;2.92;;;;;;;5.50;72.39;101999.88;4842962;29;20025;-94
2021/12/16 15:48:25;;;;;;;5.50;3.25;;;;;;;6.06;72.25;102083.72;4830458;29;20020;-86
2021/12/16 15:51:10;;;;;;;4.13;2.70;;;;;;;6.51;72.49;102153.59;4835126;29;20120;-93
2021/12/16 15:53:43;;;;;;;3.85;2.90;;;;;;;6.13;72.48;102092.06;4950759;24;20158;-91
2021/12/16 15:56:53;;;;;;;4.35;2.90;;;;;;;6.39;72.32;102120.41;4832952;29;20179;-91
2021/12/16 15:59:31;;;;;;;6.18;3.03;;;;;;;6.11;72.43;102078.94;4847512;29;20079;-88
2021/12/16 16:02:01;;;;;;;4.70;3.05;;;;;;;6.49;72.50;102147.34;4813525;29;20617;-91
2021/12/16 16:04:40;;;;;;;4.35;3.25;;;;;;;6.62;72.32;102153.69;4846609;29;20029;-94
2021/12/16 16:07:09;;;;;;;4.25;3.08;;;;;;;6.58;72.31;102152.47;4832027;29;20034;-93
2021/12/16 16:09:47;;;;;;;5.00;3.15;;;;;;;5.78;72.12;102028.34;4864983;29;20092;-94
2021/12/16 16:12:18;;;;;;;4.40;3.20;;;;;;;5.62;72.68;102009.53;4845671;29;20523;-94
2021/12/16 16:15:22;;;;;;;4.63;2.95;;;;;;;6.49;72.34;102165.50;4817976;29;20038;-92
2021/12/16 16:18:13;;;;;;;7.97;3.50;;;;;;;6.54;72.13;102158.19;4846338;29;20041;-94
2021/12/16 16:20:46;;;;;;;3.90;3.00;;;;;;;6.76;71.45;102158.47;4817550;29;20030;-92
2021/12/16 16:23:20;;;;;;;3.85;2.85;;;;;;;6.48;72.12;102145.53;4827201;29;20404;-93
2021/12/16 16:26:20;;;;;;;4.90;3.20;;;;;;;6.60;72.16;102170.78;4818923;29;20037;-93
2021/12/16 16:29:27;;;;;;;3.92;3.20;;;;;;;6.50;72.45;102174.25;4814619;29;20124;-93
2021/12/16 16:31:54;;;;;;;3.45;3.00;;;;;;;5.93;72.38;102085.91;5074253;24;20920;-95
2021/12/16 16:34:39;;;;;;;4.20;3.42;;;;;;;6.50;72.51;102172.56;4850203;29;20042;-95
2021/12/16 16:37:08;;;;;;;4.97;3.30;;;;;;;5.93;72.44;102078.13;4840252;29;20046;-91
2021/12/16 16:39:41;;;;;;;4.35;2.80;;;;;;;6.26;72.56;102150.41;4842438;29;20091;-91
2021/12/16 16:42:11;;;;;;;4.43;3.30;;;;;;;6.10;72.54;102109.16;4830505;29;20059;-89
2021/12/16 16:45:09;;;;;;;4.60;3.50;;;;;;;6.85;71.17;102182.66;4821768;29;20178;-92
2021/12/16 16:47:52;;;;;;;5.35;3.03;;;;;;;6.46;71.65;102154.88;4839558;29;20030;-92
2021/12/16 16:50:27;;;;;;;3.78;2.90;;;;;;;6.26;72.55;102146.91;4826058;29;20034;-89
2021/12/16 16:52:55;;;;;;;4.80;3.22;;;;;;;6.04;72.61;102105.09;4836706;29;20033;-89
2021/12/16 16:55:39;;;;;;;5.40;3.67;;;;;;;6.26;71.77;102108.91;4829405;29;20040;-92
2021/12/16 16:58:15;;;;;;;4.00;3.15;;;;;;;6.32;71.43;102100.78;4844169;29;20117;-91
2021/12/16 17:01:01;;;;;;;4.75;3.53;;;;;;;6.14;72.17;102109.44;4826483;29;20504;-91
2021/12/16 17:03:32;;;;;;;4.75;3.28;;;;;;;5.84;71.75;102005.59;4831660;29;20094;-93
2021/12/16 17:06:02;;;;;;;4.78;3.42;;;;;;;5.80;71.62;102005.16;5005176;24;20065;-95